sensor_id;sensor_type;location;lat;lon;timestamp;pressure;altitude;pressure_sealevel;temperature;humidity
21185;BME280;18176;49.502;11.754;2023-03-25T00:00:55;96251.31;;;13.14;67.44
21185;BME280;18176;49.502;11.754;2023-03-25T00:04:56;96238.56;;;13.26;67.64
21185;BME280;18176;49.502;11.754;2023-03-25T00:09:00;96240.69;;;13.14;67.59
21185;BME280;18176;49.502;11.754;2023-03-25T00:13:04;96206.38;;;13.23;66.75
21185;BME280;18176;49.502;11.754;2023-03-25T00:17:05;96240.69;;;13.14;67.48
21185;BME280;18176;49.502;11.754;2023-03-25T00:21:07;96226.59;;;13.34;66.29
21185;BME280;18176;49.502;11.754;2023-03-25T00:25:11;96226.88;;;13.43;65.74
21185;BME280;18176;49.502;11.754;2023-03-25T00:29:18;96237.53;;;13.32;66.75
21185;BME280;18176;49.502;11.754;2023-03-25T00:33:19;96242.28;;;13.25;66.67
21185;BME280;18176;49.502;11.754;2023-03-25T00:37:19;96232.19;;;13.43;66.89
21185;BME280;18176;49.502;11.754;2023-03-25T00:41:24;96236.97;;;13.25;68.49
21185;BME280;18176;49.502;11.754;2023-03-25T00:45:27;96213.66;;;12.71;69.95
21185;BME280;18176;49.502;11.754;2023-03-25T00:49:28;96208.56;;;12.64;71.62
21185;BME280;18176;49.502;11.754;2023-03-25T00:53:28;96208.50;;;12.49;72.26
21185;BME280;18176;49.502;11.754;2023-03-25T00:57:29;96193.84;;;12.41;73.19
21185;BME280;18176;49.502;11.754;2023-03-25T01:01:33;96176.00;;;12.27;73.87
21185;BME280;18176;49.502;11.754;2023-03-25T01:05:36;96180.41;;;12.11;74.75
21185;BME280;18176;49.502;11.754;2023-03-25T01:09:38;96172.16;;;12.08;74.13
21185;BME280;18176;49.502;11.754;2023-03-25T01:13:43;96162.78;;;11.90;73.95
21185;BME280;18176;49.502;11.754;2023-03-25T01:17:47;96169.22;;;12.04;74.00
21185;BME280;18176;49.502;11.754;2023-03-25T01:21:47;96174.75;;;11.97;74.82
21185;BME280;18176;49.502;11.754;2023-03-25T01:25:48;96166.53;;;11.94;73.05
21185;BME280;18176;49.502;11.754;2023-03-25T01:29:49;96169.97;;;11.99;72.61
21185;BME280;18176;49.502;11.754;2023-03-25T01:33:53;96175.91;;;12.12;72.06
21185;BME280;18176;49.502;11.754;2023-03-25T01:37:55;96189.13;;;12.02;71.26
21185;BME280;18176;49.502;11.754;2023-03-25T01:41:55;96190.72;;;11.66;72.38
21185;BME280;18176;49.502;11.754;2023-03-25T01:45:56;96184.72;;;11.75;73.57
21185;BME280;18176;49.502;11.754;2023-03-25T01:50:00;96182.28;;;11.37;74.41
21185;BME280;18176;49.502;11.754;2023-03-25T01:54:01;96170.16;;;11.46;74.31
21185;BME280;18176;49.502;11.754;2023-03-25T01:58:06;96171.06;;;11.30;74.32
21185;BME280;18176;49.502;11.754;2023-03-25T02:02:10;96151.91;;;11.23;73.39
21185;BME280;18176;49.502;11.754;2023-03-25T02:06:19;96135.97;;;11.18;73.95
21185;BME280;18176;49.502;11.754;2023-03-25T02:10:22;96165.28;;;11.38;73.63
21185;BME280;18176;49.502;11.754;2023-03-25T02:14:27;96152.88;;;11.12;72.67
21185;BME280;18176;49.502;11.754;2023-03-25T02:18:42;96148.59;;;11.43;71.88
21185;BME280;18176;49.502;11.754;2023-03-25T02:23:22;96139.38;;;11.13;72.01
21185;BME280;18176;49.502;11.754;2023-03-25T02:28:02;96144.22;;;10.95;72.93
21185;BME280;18176;49.502;11.754;2023-03-25T02:32:21;96132.28;;;10.92;72.92
21185;BME280;18176;49.502;11.754;2023-03-25T02:41:21;96144.06;;;11.06;72.69
21185;BME280;18176;49.502;11.754;2023-03-25T02:45:30;96150.34;;;11.27;72.54
21185;BME280;18176;49.502;11.754;2023-03-25T02:49:37;96144.06;;;11.06;73.00
21185;BME280;18176;49.502;11.754;2023-03-25T02:53:40;96144.34;;;11.10;72.44
21185;BME280;18176;49.502;11.754;2023-03-25T02:57:50;96160.13;;;10.95;72.76
21185;BME280;18176;49.502;11.754;2023-03-25T03:01:56;96147.47;;;11.02;71.91
21185;BME280;18176;49.502;11.754;2023-03-25T03:06:00;96149.06;;;11.03;71.76
21185;BME280;18176;49.502;11.754;2023-03-25T03:10:15;96145.25;;;11.20;70.95
21185;BME280;18176;49.502;11.754;2023-03-25T03:14:36;96142.06;;;10.92;71.53
21185;BME280;18176;49.502;11.754;2023-03-25T03:18:50;96145.03;;;11.27;70.62
21185;BME280;18176;49.502;11.754;2023-03-25T03:23:08;96156.25;;;11.02;70.42
21185;BME280;18176;49.502;11.754;2023-03-25T03:27:18;96139.06;;;11.10;70.32
21185;BME280;18176;49.502;11.754;2023-03-25T03:31:35;96141.78;;;10.88;71.00
21185;BME280;18176;49.502;11.754;2023-03-25T03:36:05;96164.28;;;10.86;71.77
21185;BME280;18176;49.502;11.754;2023-03-25T03:40:13;96158.59;;;10.72;72.38
21185;BME280;18176;49.502;11.754;2023-03-25T03:44:20;96153.69;;;10.86;71.63
21185;BME280;18176;49.502;11.754;2023-03-25T03:48:29;96156.28;;;10.81;72.07
21185;BME280;18176;49.502;11.754;2023-03-25T03:52:36;96165.19;;;10.70;71.94
21185;BME280;18176;49.502;11.754;2023-03-25T03:56:46;96173.59;;;10.67;71.78
21185;BME280;18176;49.502;11.754;2023-03-25T04:01:02;96173.78;;;10.82;71.47
21185;BME280;18176;49.502;11.754;2023-03-25T04:05:13;96172.28;;;10.91;70.84
21185;BME280;18176;49.502;11.754;2023-03-25T04:09:22;96184.56;;;10.75;71.23
21185;BME280;18176;49.502;11.754;2023-03-25T04:13:35;96172.09;;;10.97;70.80
21185;BME280;18176;49.502;11.754;2023-03-25T04:17:36;96182.38;;;10.94;70.42
21185;BME280;18176;49.502;11.754;2023-03-25T04:21:41;96182.38;;;10.94;71.15
21185;BME280;18176;49.502;11.754;2023-03-25T04:25:41;96173.28;;;11.11;70.76
21185;BME280;18176;49.502;11.754;2023-03-25T04:29:44;96176.56;;;11.23;69.51
21185;BME280;18176;49.502;11.754;2023-03-25T04:33:45;96175.69;;;11.45;69.59
21185;BME280;18176;49.502;11.754;2023-03-25T04:37:49;96165.25;;;11.33;70.08
21185;BME280;18176;49.502;11.754;2023-03-25T04:41:54;96171.25;;;11.23;70.26
21185;BME280;18176;49.502;11.754;2023-03-25T04:45:58;96168.91;;;11.27;71.68
21185;BME280;18176;49.502;11.754;2023-03-25T04:49:59;96169.13;;;10.94;73.04
21185;BME280;18176;49.502;11.754;2023-03-25T04:54:02;96189.44;;;10.83;74.13
21185;BME280;18176;49.502;11.754;2023-03-25T04:58:04;96178.75;;;10.51;75.83
21185;BME280;18176;49.502;11.754;2023-03-25T05:02:05;96184.34;;;10.55;76.35
21185;BME280;18176;49.502;11.754;2023-03-25T05:06:10;96185.44;;;10.59;76.75
21185;BME280;18176;49.502;11.754;2023-03-25T05:10:14;96179.22;;;10.27;76.50
21185;BME280;18176;49.502;11.754;2023-03-25T05:14:18;96182.84;;;10.21;76.29
21185;BME280;18176;49.502;11.754;2023-03-25T05:18:19;96190.88;;;10.09;76.26
21185;BME280;18176;49.502;11.754;2023-03-25T05:22:19;96191.78;;;9.98;76.89
21185;BME280;18176;49.502;11.754;2023-03-25T05:26:22;96199.41;;;10.11;75.77
21185;BME280;18176;49.502;11.754;2023-03-25T05:30:25;96194.09;;;10.11;74.14
21185;BME280;18176;49.502;11.754;2023-03-25T05:34:29;96199.00;;;10.19;72.74
21185;BME280;18176;49.502;11.754;2023-03-25T05:38:29;96196.34;;;10.19;72.55
21185;BME280;18176;49.502;11.754;2023-03-25T05:42:33;96184.97;;;10.40;71.05
21185;BME280;18176;49.502;11.754;2023-03-25T05:46:34;96197.41;;;10.40;70.39
21185;BME280;18176;49.502;11.754;2023-03-25T05:50:36;96225.91;;;10.54;69.58
21185;BME280;18176;49.502;11.754;2023-03-25T05:54:39;96201.41;;;10.64;69.03
21185;BME280;18176;49.502;11.754;2023-03-25T05:58:42;96235.28;;;10.40;66.74
21185;BME280;18176;49.502;11.754;2023-03-25T06:02:42;96219.03;;;10.53;67.10
21185;BME280;18176;49.502;11.754;2023-03-25T06:06:43;96203.13;;;10.53;65.51
21185;BME280;18176;49.502;11.754;2023-03-25T06:10:43;96226.78;;;10.60;65.00
21185;BME280;18176;49.502;11.754;2023-03-25T06:14:48;96238.59;;;10.52;64.39
21185;BME280;18176;49.502;11.754;2023-03-25T06:18:50;96244.81;;;10.85;63.51
21185;BME280;18176;49.502;11.754;2023-03-25T06:22:52;96259.25;;;10.72;63.61
21185;BME280;18176;49.502;11.754;2023-03-25T06:26:53;96251.63;;;10.54;63.60
21185;BME280;18176;49.502;11.754;2023-03-25T06:30:56;96267.69;;;10.47;64.15
21185;BME280;18176;49.502;11.754;2023-03-25T06:35:09;96270.19;;;10.59;62.87
21185;BME280;18176;49.502;11.754;2023-03-25T06:39:11;96250.75;;;10.48;63.64
21185;BME280;18176;49.502;11.754;2023-03-25T06:43:11;96247.00;;;10.44;62.81
21185;BME280;18176;49.502;11.754;2023-03-25T06:47:34;96269.66;;;10.35;62.54
21185;BME280;18176;49.502;11.754;2023-03-25T06:51:35;96254.25;;;10.76;61.12
21185;BME280;18176;49.502;11.754;2023-03-25T06:55:36;96258.88;;;10.85;61.08
21185;BME280;18176;49.502;11.754;2023-03-25T06:59:37;96283.09;;;10.94;60.74
21185;BME280;18176;49.502;11.754;2023-03-25T07:03:40;96287.66;;;10.77;60.97
21185;BME280;18176;49.502;11.754;2023-03-25T07:07:41;96276.97;;;11.15;61.13
21185;BME280;18176;49.502;11.754;2023-03-25T07:11:42;96292.28;;;10.86;61.58
21185;BME280;18176;49.502;11.754;2023-03-25T07:15:42;96290.00;;;11.43;60.81
21185;BME280;18176;49.502;11.754;2023-03-25T07:19:45;96291.34;;;11.99;59.98
21185;BME280;18176;49.502;11.754;2023-03-25T07:23:46;96285.03;;;11.25;61.54
21185;BME280;18176;49.502;11.754;2023-03-25T07:27:48;96292.75;;;11.53;61.10
21185;BME280;18176;49.502;11.754;2023-03-25T07:31:51;96289.25;;;11.21;61.41
21185;BME280;18176;49.502;11.754;2023-03-25T07:35:54;96287.03;;;11.40;60.40
21185;BME280;18176;49.502;11.754;2023-03-25T07:39:56;96298.75;;;11.44;60.05
21185;BME280;18176;49.502;11.754;2023-03-25T07:43:56;96304.47;;;11.57;61.13
21185;BME280;18176;49.502;11.754;2023-03-25T07:48:01;96284.59;;;11.86;59.75
21185;BME280;18176;49.502;11.754;2023-03-25T07:52:05;96289.06;;;11.81;58.31
21185;BME280;18176;49.502;11.754;2023-03-25T07:56:08;96290.97;;;11.90;59.01
21185;BME280;18176;49.502;11.754;2023-03-25T08:00:11;96284.25;;;11.78;58.93
21185;BME280;18176;49.502;11.754;2023-03-25T08:04:12;96283.44;;;11.77;59.28
21185;BME280;18176;49.502;11.754;2023-03-25T08:08:15;96296.44;;;12.06;58.38
21185;BME280;18176;49.502;11.754;2023-03-25T08:12:16;96302.16;;;11.92;58.24
21185;BME280;18176;49.502;11.754;2023-03-25T08:16:17;96296.38;;;11.69;58.44
21185;BME280;18176;49.502;11.754;2023-03-25T08:20:18;96281.44;;;11.89;58.68
21185;BME280;18176;49.502;11.754;2023-03-25T08:24:21;96291.47;;;12.19;57.72
21185;BME280;18176;49.502;11.754;2023-03-25T08:28:24;96303.16;;;11.86;56.61
21185;BME280;18176;49.502;11.754;2023-03-25T08:32:27;96275.50;;;12.56;56.36
21185;BME280;18176;49.502;11.754;2023-03-25T08:36:27;96281.47;;;12.83;54.66
21185;BME280;18176;49.502;11.754;2023-03-25T08:40:31;96269.97;;;13.45;53.28
21185;BME280;18176;49.502;11.754;2023-03-25T08:44:31;96256.97;;;13.48;52.42
21185;BME280;18176;49.502;11.754;2023-03-25T08:48:32;96277.97;;;13.45;51.99
21185;BME280;18176;49.502;11.754;2023-03-25T08:52:34;96300.50;;;13.07;51.48
21185;BME280;18176;49.502;11.754;2023-03-25T08:56:39;96259.09;;;13.51;50.04
21185;BME280;18176;49.502;11.754;2023-03-25T09:00:40;96264.44;;;13.86;49.84
21185;BME280;18176;49.502;11.754;2023-03-25T09:04:41;96272.69;;;14.10;48.13
21185;BME280;18176;49.502;11.754;2023-03-25T09:08:42;96253.53;;;14.13;49.03
21185;BME280;18176;49.502;11.754;2023-03-25T09:12:49;96265.22;;;14.17;48.71
21185;BME280;18176;49.502;11.754;2023-03-25T09:16:50;96270.84;;;13.80;49.54
21185;BME280;18176;49.502;11.754;2023-03-25T09:20:51;96259.09;;;14.37;47.85
21185;BME280;18176;49.502;11.754;2023-03-25T09:24:52;96240.19;;;14.08;46.85
21185;BME280;18176;49.502;11.754;2023-03-25T09:28:55;96243.84;;;14.62;45.61
21185;BME280;18176;49.502;11.754;2023-03-25T09:32:57;96249.94;;;15.27;45.70
21185;BME280;18176;49.502;11.754;2023-03-25T09:36:58;96257.34;;;14.96;44.58
21185;BME280;18176;49.502;11.754;2023-03-25T09:41:11;96262.41;;;14.93;45.25
21185;BME280;18176;49.502;11.754;2023-03-25T09:45:33;96260.41;;;14.54;45.26
21185;BME280;18176;49.502;11.754;2023-03-25T09:49:39;96258.31;;;14.36;45.36
21185;BME280;18176;49.502;11.754;2023-03-25T09:53:47;96245.25;;;13.54;45.88
21185;BME280;18176;49.502;11.754;2023-03-25T09:58:00;96241.81;;;13.69;46.12
21185;BME280;18176;49.502;11.754;2023-03-25T10:02:25;96242.25;;;14.66;44.89
21185;BME280;18176;49.502;11.754;2023-03-25T10:06:36;96272.81;;;15.43;42.26
21185;BME280;18176;49.502;11.754;2023-03-25T10:10:45;96244.84;;;14.82;43.72
21185;BME280;18176;49.502;11.754;2023-03-25T10:15:08;96253.00;;;13.96;45.75
21185;BME280;18176;49.502;11.754;2023-03-25T10:19:37;96255.41;;;13.67;45.12
21185;BME280;18176;49.502;11.754;2023-03-25T10:23:51;96245.13;;;14.80;43.15
21185;BME280;18176;49.502;11.754;2023-03-25T10:27:56;96247.06;;;14.59;44.15
21185;BME280;18176;49.502;11.754;2023-03-25T10:32:06;96242.34;;;14.31;43.83
21185;BME280;18176;49.502;11.754;2023-03-25T10:36:16;96243.31;;;14.65;45.21
21185;BME280;18176;49.502;11.754;2023-03-25T10:40:24;96243.00;;;15.31;43.37
21185;BME280;18176;49.502;11.754;2023-03-25T10:44:27;96225.78;;;15.57;43.79
21185;BME280;18176;49.502;11.754;2023-03-25T10:48:30;96215.56;;;16.27;42.79
21185;BME280;18176;49.502;11.754;2023-03-25T10:52:33;96235.66;;;16.53;41.68
21185;BME280;18176;49.502;11.754;2023-03-25T10:56:40;96224.41;;;15.93;41.69
21185;BME280;18176;49.502;11.754;2023-03-25T11:00:43;96249.53;;;15.05;42.71
21185;BME280;18176;49.502;11.754;2023-03-25T11:04:48;96211.56;;;15.18;42.99
21185;BME280;18176;49.502;11.754;2023-03-25T11:09:15;96211.09;;;15.11;43.38
21185;BME280;18176;49.502;11.754;2023-03-25T11:13:24;96192.72;;;14.40;44.15
21185;BME280;18176;49.502;11.754;2023-03-25T11:17:27;96173.34;;;14.84;44.73
21185;BME280;18176;49.502;11.754;2023-03-25T11:21:33;96176.03;;;14.78;44.58
21185;BME280;18176;49.502;11.754;2023-03-25T11:25:40;96193.47;;;15.15;45.09
21185;BME280;18176;49.502;11.754;2023-03-25T11:29:51;96193.44;;;14.66;47.56
21185;BME280;18176;49.502;11.754;2023-03-25T11:34:07;96200.25;;;14.13;50.29
21185;BME280;18176;49.502;11.754;2023-03-25T11:38:19;96198.59;;;14.32;51.77
21185;BME280;18176;49.502;11.754;2023-03-25T11:42:37;96188.25;;;14.16;50.46
21185;BME280;18176;49.502;11.754;2023-03-25T11:46:42;96195.94;;;14.37;50.17
21185;BME280;18176;49.502;11.754;2023-03-25T11:50:53;96200.22;;;13.12;54.35
21185;BME280;18176;49.502;11.754;2023-03-25T11:54:56;96223.28;;;12.30;58.05
21185;BME280;18176;49.502;11.754;2023-03-25T11:59:07;96258.84;;;11.87;61.75
21185;BME280;18176;49.502;11.754;2023-03-25T12:03:20;96290.38;;;10.22;71.82
21185;BME280;18176;49.502;11.754;2023-03-25T12:07:22;96314.50;;;9.47;77.38
21185;BME280;18176;49.502;11.754;2023-03-25T12:11:54;96273.78;;;9.32;78.20
21185;BME280;18176;49.502;11.754;2023-03-25T12:16:23;96259.22;;;9.79;78.11
21185;BME280;18176;49.502;11.754;2023-03-25T12:20:50;96243.91;;;10.96;76.11
21185;BME280;18176;49.502;11.754;2023-03-25T12:25:14;96208.66;;;12.94;70.64
21185;BME280;18176;49.502;11.754;2023-03-25T12:29:32;96209.81;;;14.19;64.22
21185;BME280;18176;49.502;11.754;2023-03-25T12:33:52;96208.25;;;15.36;59.97
21185;BME280;18176;49.502;11.754;2023-03-25T12:38:25;96205.00;;;14.26;62.39
21185;BME280;18176;49.502;11.754;2023-03-25T12:42:45;96181.41;;;15.22;61.83
21185;BME280;18176;49.502;11.754;2023-03-25T12:47:13;96185.50;;;15.10;62.03
21185;BME280;18176;49.502;11.754;2023-03-25T12:51:37;96167.31;;;16.13;58.25
21185;BME280;18176;49.502;11.754;2023-03-25T12:55:58;96159.13;;;15.42;55.73
21185;BME280;18176;49.502;11.754;2023-03-25T13:00:39;96163.06;;;16.36;57.30
21185;BME280;18176;49.502;11.754;2023-03-25T13:05:03;96197.50;;;15.07;56.87
21185;BME280;18176;49.502;11.754;2023-03-25T13:09:14;96173.63;;;16.22;56.53
21185;BME280;18176;49.502;11.754;2023-03-25T13:13:22;96159.72;;;15.96;54.39
21185;BME280;18176;49.502;11.754;2023-03-25T13:17:30;96149.09;;;16.44;52.14
21185;BME280;18176;49.502;11.754;2023-03-25T13:21:38;96151.59;;;16.59;52.66
21185;BME280;18176;49.502;11.754;2023-03-25T13:25:49;96143.59;;;16.06;52.01
21185;BME280;18176;49.502;11.754;2023-03-25T13:29:54;96141.31;;;14.89;55.56
21185;BME280;18176;49.502;11.754;2023-03-25T13:34:10;96145.75;;;14.59;55.70
21185;BME280;18176;49.502;11.754;2023-03-25T13:38:24;96166.22;;;13.70;58.18
21185;BME280;18176;49.502;11.754;2023-03-25T13:42:38;96124.94;;;13.77;58.86
21185;BME280;18176;49.502;11.754;2023-03-25T13:46:46;96117.22;;;13.61;59.50
21185;BME280;18176;49.502;11.754;2023-03-25T13:50:48;96120.44;;;13.63;57.99
21185;BME280;18176;49.502;11.754;2023-03-25T13:54:55;96181.03;;;13.00;63.38
21185;BME280;18176;49.502;11.754;2023-03-25T13:59:19;96200.72;;;11.90;68.59
21185;BME280;18176;49.502;11.754;2023-03-25T14:04:03;96188.00;;;12.39;68.85
21185;BME280;18176;49.502;11.754;2023-03-25T14:08:43;96191.69;;;13.00;67.08
21185;BME280;18176;49.502;11.754;2023-03-25T14:12:50;96225.75;;;12.46;68.03
21185;BME280;18176;49.502;11.754;2023-03-25T14:16:57;96271.13;;;11.13;66.47
21185;BME280;18176;49.502;11.754;2023-03-25T14:21:14;96220.69;;;11.08;69.71
21185;BME280;18176;49.502;11.754;2023-03-25T14:25:31;96207.78;;;10.90;68.81
21185;BME280;18176;49.502;11.754;2023-03-25T14:29:38;96206.59;;;11.29;66.99
21185;BME280;18176;49.502;11.754;2023-03-25T14:38:55;96179.50;;;13.09;59.19
21185;BME280;18176;49.502;11.754;2023-03-25T14:42:57;96196.91;;;12.80;61.06
21185;BME280;18176;49.502;11.754;2023-03-25T14:47:01;96189.91;;;12.49;61.50
21185;BME280;18176;49.502;11.754;2023-03-25T14:51:45;96236.84;;;11.33;65.47
21185;BME280;18176;49.502;11.754;2023-03-25T14:55:52;96218.78;;;10.77;70.94
21185;BME280;18176;49.502;11.754;2023-03-25T14:59:59;96179.50;;;10.95;71.85
21185;BME280;18176;49.502;11.754;2023-03-25T15:04:23;96181.47;;;11.10;70.02
21185;BME280;18176;49.502;11.754;2023-03-25T15:08:34;96173.41;;;11.58;66.34
21185;BME280;18176;49.502;11.754;2023-03-25T15:12:40;96181.13;;;13.46;64.61
21185;BME280;18176;49.502;11.754;2023-03-25T15:16:59;96168.78;;;14.30;57.33
21185;BME280;18176;49.502;11.754;2023-03-25T15:21:03;96175.22;;;14.04;58.05
21185;BME280;18176;49.502;11.754;2023-03-25T15:25:14;96178.88;;;14.43;54.98
21185;BME280;18176;49.502;11.754;2023-03-25T15:29:41;96176.75;;;15.77;54.79
21185;BME280;18176;49.502;11.754;2023-03-25T15:34:11;96175.91;;;15.48;52.28
21185;BME280;18176;49.502;11.754;2023-03-25T15:38:41;96170.19;;;15.25;52.34
21185;BME280;18176;49.502;11.754;2023-03-25T15:43:23;96179.13;;;14.47;54.50
21185;BME280;18176;49.502;11.754;2023-03-25T15:48:28;96168.66;;;14.65;55.33
21185;BME280;18176;49.502;11.754;2023-03-25T15:53:12;96176.75;;;14.25;55.59
21185;BME280;18176;49.502;11.754;2023-03-25T15:57:43;96169.66;;;13.30;57.73
21185;BME280;18176;49.502;11.754;2023-03-25T16:01:51;96180.50;;;12.93;57.63
21185;BME280;18176;49.502;11.754;2023-03-25T16:06:04;96164.06;;;13.16;59.04
21185;BME280;18176;49.502;11.754;2023-03-25T16:10:19;96163.53;;;13.09;58.45
21185;BME280;18176;49.502;11.754;2023-03-25T16:14:21;96166.88;;;12.75;59.49
21185;BME280;18176;49.502;11.754;2023-03-25T16:18:24;96170.59;;;12.79;60.02
21185;BME280;18176;49.502;11.754;2023-03-25T16:22:30;96159.97;;;12.79;60.74
21185;BME280;18176;49.502;11.754;2023-03-25T16:26:37;96160.63;;;13.36;59.18
21185;BME280;18176;49.502;11.754;2023-03-25T16:30:40;96162.50;;;13.25;59.18
21185;BME280;18176;49.502;11.754;2023-03-25T16:34:41;96173.03;;;12.95;58.85
21185;BME280;18176;49.502;11.754;2023-03-25T16:38:46;96169.94;;;13.44;59.08
21185;BME280;18176;49.502;11.754;2023-03-25T16:42:51;96175.00;;;13.45;58.18
21185;BME280;18176;49.502;11.754;2023-03-25T16:46:55;96175.78;;;13.25;58.96
21185;BME280;18176;49.502;11.754;2023-03-25T16:51:05;96177.25;;;12.81;58.15
21185;BME280;18176;49.502;11.754;2023-03-25T16:55:28;96174.91;;;13.00;57.97
21185;BME280;18176;49.502;11.754;2023-03-25T16:59:33;96177.22;;;12.71;58.28
21185;BME280;18176;49.502;11.754;2023-03-25T17:03:43;96183.63;;;12.75;58.18
21185;BME280;18176;49.502;11.754;2023-03-25T17:07:56;96178.78;;;12.62;57.76
21185;BME280;18176;49.502;11.754;2023-03-25T17:12:09;96184.69;;;12.74;56.93
21185;BME280;18176;49.502;11.754;2023-03-25T17:16:13;96189.41;;;12.52;57.18
21185;BME280;18176;49.502;11.754;2023-03-25T17:20:19;96188.84;;;12.55;57.30
21185;BME280;18176;49.502;11.754;2023-03-25T17:24:24;96193.16;;;12.71;56.79
21185;BME280;18176;49.502;11.754;2023-03-25T17:28:34;96199.34;;;12.87;56.26
21185;BME280;18176;49.502;11.754;2023-03-25T17:32:43;96197.16;;;12.74;57.06
21185;BME280;18176;49.502;11.754;2023-03-25T17:36:55;96189.41;;;12.62;57.34
21185;BME280;18176;49.502;11.754;2023-03-25T17:41:01;96181.94;;;12.49;57.33
21185;BME280;18176;49.502;11.754;2023-03-25T17:45:14;96201.38;;;12.54;57.76
21185;BME280;18176;49.502;11.754;2023-03-25T17:49:23;96223.91;;;12.47;59.41
21185;BME280;18176;49.502;11.754;2023-03-25T17:53:27;96221.97;;;12.32;59.14
21185;BME280;18176;49.502;11.754;2023-03-25T17:57:30;96230.97;;;12.26;58.91
21185;BME280;18176;49.502;11.754;2023-03-25T18:01:38;96240.63;;;12.01;58.02
21185;BME280;18176;49.502;11.754;2023-03-25T18:05:41;96225.53;;;12.06;56.83
21185;BME280;18176;49.502;11.754;2023-03-25T18:09:48;96227.22;;;12.22;54.87
21185;BME280;18176;49.502;11.754;2023-03-25T18:13:55;96215.34;;;12.35;54.35
21185;BME280;18176;49.502;11.754;2023-03-25T18:18:00;96229.50;;;12.55;52.97
21185;BME280;18176;49.502;11.754;2023-03-25T18:22:03;96224.50;;;12.64;52.20
21185;BME280;18176;49.502;11.754;2023-03-25T18:26:18;96222.84;;;12.53;51.60
21185;BME280;18176;49.502;11.754;2023-03-25T18:30:27;96235.63;;;12.56;51.19
21185;BME280;18176;49.502;11.754;2023-03-25T18:34:35;96221.41;;;12.82;50.87
21185;BME280;18176;49.502;11.754;2023-03-25T18:38:39;96221.09;;;12.74;50.86
21185;BME280;18176;49.502;11.754;2023-03-25T18:42:43;96228.75;;;12.60;51.13
21185;BME280;18176;49.502;11.754;2023-03-25T18:46:46;96228.66;;;12.40;51.68
21185;BME280;18176;49.502;11.754;2023-03-25T18:50:53;96232.91;;;12.46;51.40
21185;BME280;18176;49.502;11.754;2023-03-25T18:54:56;96217.97;;;12.30;51.80
21185;BME280;18176;49.502;11.754;2023-03-25T18:58:59;96220.97;;;12.48;51.59
21185;BME280;18176;49.502;11.754;2023-03-25T19:03:02;96214.88;;;12.43;51.57
21185;BME280;18176;49.502;11.754;2023-03-25T19:07:09;96208.31;;;12.14;52.19
21185;BME280;18176;49.502;11.754;2023-03-25T19:11:14;96225.31;;;12.13;52.70
21185;BME280;18176;49.502;11.754;2023-03-25T19:15:22;96239.16;;;12.20;52.92
21185;BME280;18176;49.502;11.754;2023-03-25T19:19:29;96238.94;;;12.26;52.86
21185;BME280;18176;49.502;11.754;2023-03-25T19:23:37;96243.44;;;12.26;53.26
21185;BME280;18176;49.502;11.754;2023-03-25T19:27:45;96238.97;;;12.31;52.72
21185;BME280;18176;49.502;11.754;2023-03-25T19:31:48;96230.72;;;12.33;52.22
21185;BME280;18176;49.502;11.754;2023-03-25T19:35:52;96244.09;;;12.43;53.55
21185;BME280;18176;49.502;11.754;2023-03-25T19:40:00;96240.72;;;12.16;53.62
21185;BME280;18176;49.502;11.754;2023-03-25T19:44:06;96250.38;;;12.32;53.26
21185;BME280;18176;49.502;11.754;2023-03-25T19:48:09;96253.44;;;12.14;53.83
21185;BME280;18176;49.502;11.754;2023-03-25T19:52:12;96240.53;;;11.90;54.20
21185;BME280;18176;49.502;11.754;2023-03-25T19:56:17;96256.06;;;12.04;54.26
21185;BME280;18176;49.502;11.754;2023-03-25T20:00:23;96267.31;;;12.21;54.07
21185;BME280;18176;49.502;11.754;2023-03-25T20:04:28;96258.59;;;11.88;54.39
21185;BME280;18176;49.502;11.754;2023-03-25T20:08:34;96262.31;;;11.87;54.43
21185;BME280;18176;49.502;11.754;2023-03-25T20:12:44;96244.31;;;11.99;53.97
21185;BME280;18176;49.502;11.754;2023-03-25T20:16:47;96257.06;;;11.97;54.30
21185;BME280;18176;49.502;11.754;2023-03-25T20:20:51;96247.72;;;12.27;53.66
21185;BME280;18176;49.502;11.754;2023-03-25T20:24:55;96249.06;;;12.29;53.48
21185;BME280;18176;49.502;11.754;2023-03-25T20:29:00;96233.50;;;12.06;53.50
21185;BME280;18176;49.502;11.754;2023-03-25T20:33:05;96251.50;;;12.41;53.32
21185;BME280;18176;49.502;11.754;2023-03-25T20:37:10;96258.13;;;12.38;52.85
21185;BME280;18176;49.502;11.754;2023-03-25T20:41:16;96288.19;;;12.44;52.46
21185;BME280;18176;49.502;11.754;2023-03-25T20:59:40;96270.59;;;12.33;53.39
21185;BME280;18176;49.502;11.754;2023-03-25T21:03:40;96275.63;;;11.92;53.59
21185;BME280;18176;49.502;11.754;2023-03-25T21:07:42;96294.75;;;12.36;52.60
21185;BME280;18176;49.502;11.754;2023-03-25T21:11:45;96279.22;;;11.81;53.32
21185;BME280;18176;49.502;11.754;2023-03-25T21:15:52;96285.94;;;11.89;53.36
21185;BME280;18176;49.502;11.754;2023-03-25T21:19:55;96288.91;;;12.34;54.21
21185;BME280;18176;49.502;11.754;2023-03-25T21:23:56;96285.44;;;11.92;54.14
21185;BME280;18176;49.502;11.754;2023-03-25T21:27:56;96293.13;;;11.93;54.50
21185;BME280;18176;49.502;11.754;2023-03-25T21:32:00;96292.47;;;11.76;55.47
21185;BME280;18176;49.502;11.754;2023-03-25T21:36:01;96267.19;;;12.01;54.67
21185;BME280;18176;49.502;11.754;2023-03-25T21:40:05;96284.72;;;12.02;55.45
21185;BME280;18176;49.502;11.754;2023-03-25T21:44:08;96292.75;;;11.80;56.39
21185;BME280;18176;49.502;11.754;2023-03-25T21:48:15;96292.47;;;11.76;56.41
21185;BME280;18176;49.502;11.754;2023-03-25T21:52:17;96280.84;;;11.82;56.63
21185;BME280;18176;49.502;11.754;2023-03-25T21:56:20;96267.75;;;11.71;57.10
21185;BME280;18176;49.502;11.754;2023-03-25T22:00:21;96262.00;;;11.84;57.23